createdAt,value
2022-11-15T00:00:11.426Z,11.42
2022-11-15T00:05:13.843Z,11.41
2022-11-15T00:10:16.258Z,11.32
2022-11-15T00:15:18.601Z,11.31
2022-11-15T00:20:21.528Z,11.38
2022-11-15T00:25:24.200Z,11.20
2022-11-15T00:30:27.521Z,11.63
2022-11-15T00:35:29.931Z,11.48
2022-11-15T00:40:32.390Z,11.49
2022-11-15T00:45:34.615Z,11.48
2022-11-15T00:50:36.945Z,11.41
2022-11-15T00:55:39.312Z,11.81
2022-11-15T01:00:41.743Z,11.74
2022-11-15T01:05:43.983Z,11.81
2022-11-15T01:10:46.337Z,11.81
2022-11-15T01:15:48.603Z,11.71
2022-11-15T01:20:50.861Z,12.01
2022-11-15T01:25:53.055Z,12.13
2022-11-15T01:30:55.254Z,12.11
2022-11-15T01:35:57.812Z,11.84
2022-11-15T01:41:00.132Z,11.79
2022-11-15T01:46:25.409Z,12.07
2022-11-15T01:51:31.485Z,12.29
2022-11-15T01:56:38.114Z,12.22
2022-11-15T02:01:40.652Z,12.36
2022-11-15T02:06:45.090Z,12.39
2022-11-15T02:11:48.657Z,12.34
2022-11-15T02:17:15.252Z,12.47
2022-11-15T02:22:23.238Z,12.47
2022-11-15T02:27:52.609Z,12.44
2022-11-15T02:33:02.108Z,12.33
2022-11-15T02:38:30.742Z,12.54
2022-11-15T02:43:59.906Z,12.48
2022-11-15T02:49:02.353Z,12.38
2022-11-15T02:54:04.601Z,12.24
2022-11-15T02:59:25.187Z,12.50
2022-11-15T03:04:36.542Z,12.48
2022-11-15T03:09:49.294Z,12.33
2022-11-15T03:15:06.920Z,12.10
2022-11-15T03:20:11.224Z,12.52
2022-11-15T03:25:19.208Z,12.64
2022-11-15T03:30:21.475Z,12.51
2022-11-15T03:35:26.654Z,12.32
2022-11-15T03:40:38.109Z,12.72
2022-11-15T03:45:52.202Z,12.71
2022-11-15T03:50:55.115Z,12.59
2022-11-15T03:55:57.359Z,12.62
2022-11-15T04:01:01.004Z,12.49
2022-11-15T04:06:03.427Z,12.46
2022-11-15T04:11:05.657Z,12.37
2022-11-15T04:16:08.029Z,12.34
2022-11-15T04:21:29.027Z,12.57
2022-11-15T04:26:31.619Z,12.45
2022-11-15T04:31:34.022Z,12.58
2022-11-15T04:36:54.821Z,12.59
2022-11-15T04:41:57.004Z,12.50
2022-11-15T04:46:59.259Z,12.46
2022-11-15T04:52:01.775Z,12.45
2022-11-15T04:57:04.110Z,12.39
2022-11-15T05:02:06.344Z,12.55
2022-11-15T05:07:08.612Z,12.57
2022-11-15T05:12:10.821Z,12.52
2022-11-15T05:17:13.196Z,12.50
2022-11-15T05:22:15.424Z,12.35
2022-11-15T05:27:17.686Z,12.32
2022-11-15T05:32:20.117Z,12.52
2022-11-15T05:37:22.309Z,12.63
2022-11-15T05:42:28.037Z,12.60
2022-11-15T05:47:32.200Z,12.24
2022-11-15T05:52:38.457Z,12.29
2022-11-15T05:57:40.783Z,12.50
2022-11-15T06:02:43.752Z,12.34
2022-11-15T06:07:46.029Z,12.73
2022-11-15T06:12:48.206Z,12.71
2022-11-15T06:17:50.469Z,12.81
2022-11-15T06:22:52.657Z,12.42
2022-11-15T06:27:58.937Z,12.34
2022-11-15T06:33:03.741Z,12.49
2022-11-15T06:38:11.888Z,12.79
2022-11-15T06:43:14.317Z,12.71
2022-11-15T06:48:16.486Z,12.42
2022-11-15T06:53:18.772Z,12.63
2022-11-15T06:58:22.806Z,12.92
2022-11-15T07:03:24.979Z,12.78
2022-11-15T07:08:29.743Z,12.96
2022-11-15T07:13:37.334Z,13.04
2022-11-15T07:18:41.250Z,13.16
2022-11-15T07:23:43.587Z,13.14
2022-11-15T07:28:45.832Z,12.93
2022-11-15T07:33:48.098Z,12.76
2022-11-15T07:38:50.284Z,12.96
2022-11-15T07:43:55.524Z,12.97
2022-11-15T07:48:57.717Z,13.24
2022-11-15T07:54:00.174Z,13.46
2022-11-15T07:59:02.561Z,13.46
2022-11-15T08:04:05.043Z,13.55
2022-11-15T08:09:07.327Z,13.73
2022-11-15T08:14:09.539Z,13.77
2022-11-15T08:19:11.734Z,13.92
2022-11-15T08:24:14.238Z,14.17
2022-11-15T08:29:16.406Z,14.25
2022-11-15T08:34:18.889Z,14.47
2022-11-15T08:39:21.940Z,14.69
2022-11-15T08:44:25.665Z,14.73
2022-11-15T08:49:28.317Z,14.71
2022-11-15T08:54:30.724Z,14.74
2022-11-15T08:59:32.885Z,14.93
2022-11-15T09:04:35.297Z,15.10
2022-11-15T09:09:37.699Z,15.08
2022-11-15T09:14:40.341Z,15.51
2022-11-15T09:19:42.609Z,15.36
2022-11-15T09:24:44.850Z,15.61
2022-11-15T09:29:47.032Z,15.84
2022-11-15T09:34:49.346Z,15.96
2022-11-15T09:39:51.597Z,16.22
2022-11-15T09:45:18.010Z,16.27
2022-11-15T09:50:49.233Z,16.14
2022-11-15T09:56:01.950Z,16.10
2022-11-15T10:01:10.226Z,16.15
2022-11-15T10:06:26.045Z,15.84
2022-11-15T10:11:39.802Z,16.07
2022-11-15T10:17:00.268Z,16.10
2022-11-15T10:22:28.978Z,16.06
2022-11-15T10:27:31.434Z,16.05
2022-11-15T10:32:36.239Z,16.07
2022-11-15T10:37:38.421Z,16.07
2022-11-15T10:42:40.635Z,16.09
2022-11-15T10:47:43.544Z,16.04
2022-11-15T10:52:49.030Z,16.09
2022-11-15T10:57:55.949Z,16.10
2022-11-15T11:03:02.648Z,16.14
2022-11-15T11:08:13.068Z,16.30
2022-11-15T11:13:23.083Z,16.25
2022-11-15T11:19:08.613Z,16.10
2022-11-15T11:24:33.649Z,16.34
2022-11-15T11:29:48.040Z,16.34
2022-11-15T11:35:13.848Z,16.23
2022-11-15T11:40:54.720Z,16.29
2022-11-15T11:46:06.823Z,16.57
2022-11-15T11:51:24.706Z,16.58
2022-11-15T11:56:34.092Z,16.89
2022-11-15T12:01:43.431Z,16.97
2022-11-15T12:07:04.024Z,17.01
2022-11-15T12:12:12.547Z,17.02
2022-11-15T12:17:17.665Z,17.00
2022-11-15T12:22:19.868Z,16.88
2022-11-15T12:27:53.568Z,16.60
2022-11-15T12:33:02.508Z,16.90
2022-11-15T12:38:05.472Z,17.10
2022-11-15T12:43:16.941Z,17.22
2022-11-15T12:48:19.088Z,17.28
2022-11-15T12:53:24.578Z,17.45
2022-11-15T12:58:40.444Z,17.59
2022-11-15T13:04:27.914Z,17.66
2022-11-15T13:09:36.605Z,17.86
2022-11-15T13:14:38.842Z,17.83
2022-11-15T13:19:41.397Z,17.73
2022-11-15T13:24:43.734Z,17.69
2022-11-15T13:29:46.095Z,17.57
2022-11-15T13:34:52.543Z,17.69
2022-11-15T13:39:55.226Z,17.44
2022-11-15T13:44:58.641Z,17.51
2022-11-15T13:50:02.403Z,17.43
2022-11-15T13:55:14.623Z,17.41
2022-11-15T14:00:37.266Z,17.12
2022-11-15T14:05:40.042Z,17.08
2022-11-15T14:10:42.398Z,16.99
2022-11-15T14:15:44.918Z,16.97
2022-11-15T14:20:47.296Z,16.87
2022-11-15T14:25:59.985Z,16.73
2022-11-15T14:31:02.532Z,16.82
2022-11-15T14:36:22.236Z,16.75
2022-11-15T14:41:27.782Z,16.71
2022-11-15T14:46:30.152Z,16.49
2022-11-15T14:51:34.575Z,16.48
2022-11-15T14:56:36.936Z,16.34
2022-11-15T15:01:39.206Z,16.09
2022-11-15T15:06:41.550Z,15.88
2022-11-15T15:11:43.860Z,15.71
2022-11-15T15:16:46.114Z,15.64
2022-11-15T15:21:48.587Z,15.64
2022-11-15T15:26:51.142Z,15.33
2022-11-15T15:31:53.372Z,15.09
2022-11-15T15:37:27.104Z,15.16
2022-11-15T15:42:29.607Z,14.85
2022-11-15T15:47:31.801Z,14.28
2022-11-15T15:52:34.299Z,14.85
2022-11-15T15:57:36.497Z,14.60
2022-11-15T16:02:40.706Z,14.51
2022-11-15T16:07:44.894Z,14.52
2022-11-15T16:12:47.803Z,14.64
2022-11-15T16:17:53.469Z,14.71
2022-11-15T16:22:55.801Z,14.61
2022-11-15T16:27:58.339Z,14.69
2022-11-15T16:33:01.841Z,14.52
2022-11-15T16:38:04.144Z,14.61
2022-11-15T16:43:06.900Z,14.35
2022-11-15T16:48:27.848Z,14.35
2022-11-15T16:53:30.140Z,14.45
2022-11-15T16:58:34.157Z,14.50
2022-11-15T17:03:36.553Z,14.54
2022-11-15T17:08:38.887Z,14.35
2022-11-15T17:13:41.101Z,14.36
2022-11-15T17:18:46.218Z,14.34
2022-11-15T17:23:49.307Z,14.55
2022-11-15T17:28:56.316Z,14.42
2022-11-15T17:33:58.646Z,14.47
2022-11-15T17:39:01.069Z,14.50
2022-11-15T17:44:03.935Z,14.46
2022-11-15T17:49:06.269Z,14.43
2022-11-15T17:54:12.260Z,14.28
2022-11-15T17:59:21.412Z,14.42
2022-11-15T18:04:28.560Z,14.34
2022-11-15T18:09:30.890Z,14.29
2022-11-15T18:14:33.386Z,14.12
2022-11-15T18:19:36.939Z,14.06
2022-11-15T18:24:39.344Z,14.12
2022-11-15T18:29:41.729Z,14.14
2022-11-15T18:34:44.131Z,14.04
2022-11-15T18:39:51.053Z,14.02
2022-11-15T18:44:55.092Z,14.06
2022-11-15T18:50:00.114Z,13.83
2022-11-15T18:55:02.714Z,14.09
2022-11-15T19:00:05.289Z,13.96
2022-11-15T19:05:08.086Z,13.77
2022-11-15T19:10:12.362Z,13.83
2022-11-15T19:15:15.202Z,13.95
2022-11-15T19:20:17.480Z,13.97
2022-11-15T19:25:20.000Z,13.58
2022-11-15T19:30:22.379Z,13.53
2022-11-15T19:35:24.716Z,13.47
2022-11-15T19:40:26.900Z,13.69
2022-11-15T19:45:29.224Z,13.83
2022-11-15T19:50:31.700Z,13.83
2022-11-15T19:55:34.054Z,13.49
2022-11-15T20:00:36.322Z,13.70
2022-11-15T20:05:38.583Z,13.63
2022-11-15T20:10:40.929Z,13.39
2022-11-15T20:15:44.152Z,13.58
2022-11-15T20:20:47.093Z,13.63
2022-11-15T20:25:49.429Z,13.46
2022-11-15T20:30:54.018Z,13.34
2022-11-15T20:35:56.298Z,13.23
2022-11-15T20:41:00.329Z,13.19
2022-11-15T20:46:03.000Z,13.26
2022-11-15T20:51:06.728Z,13.06
2022-11-15T20:56:12.903Z,13.31
2022-11-15T21:01:16.037Z,13.28
2022-11-15T21:06:21.220Z,13.04
2022-11-15T21:11:41.814Z,13.15
2022-11-15T21:16:44.276Z,13.28
2022-11-15T21:21:46.601Z,13.06
2022-11-15T21:26:48.927Z,13.01
2022-11-15T21:31:52.580Z,12.96
2022-11-15T21:36:54.880Z,13.14
2022-11-15T21:41:57.270Z,13.24
2022-11-15T21:47:00.759Z,12.89
2022-11-15T21:52:03.598Z,12.62
2022-11-15T21:57:05.935Z,12.90
2022-11-15T22:02:15.573Z,12.96
2022-11-15T22:07:17.900Z,12.91
2022-11-15T22:12:20.167Z,12.86
2022-11-15T22:17:24.945Z,12.99
2022-11-15T22:22:27.355Z,12.86
2022-11-15T22:27:29.623Z,13.08
2022-11-15T22:32:31.975Z,13.02
2022-11-15T22:37:34.296Z,12.91
2022-11-15T22:42:36.613Z,12.94
2022-11-15T22:47:38.774Z,12.73
2022-11-15T22:52:40.962Z,12.58
2022-11-15T22:57:43.387Z,12.75
2022-11-15T23:02:45.656Z,12.66
2022-11-15T23:07:49.056Z,12.63
2022-11-15T23:13:10.734Z,12.66
2022-11-15T23:18:47.637Z,12.63
2022-11-15T23:24:01.248Z,12.42
2022-11-15T23:29:05.631Z,12.45
2022-11-15T23:34:09.300Z,12.48
2022-11-15T23:39:12.027Z,12.13
2022-11-15T23:44:15.325Z,12.31
2022-11-15T23:49:18.454Z,12.38
2022-11-15T23:54:24.865Z,12.22
2022-11-15T23:59:31.136Z,12.28
